createdAt,value
2024-01-27T00:00:54.688Z,98817.50
2024-01-27T00:05:58.273Z,98806.59
2024-01-27T00:11:01.501Z,98813.00
2024-01-27T00:16:07.005Z,98815.94
2024-01-27T00:21:10.485Z,98819.69
2024-01-27T00:26:13.747Z,98829.75
2024-01-27T00:31:18.434Z,98834.81
2024-01-27T00:36:21.650Z,98843.16
2024-01-27T00:41:24.858Z,98852.97
2024-01-27T00:46:29.591Z,98847.69
2024-01-27T00:51:33.023Z,98855.91
2024-01-27T00:56:36.289Z,98857.38
2024-01-27T01:01:40.855Z,98855.03
2024-01-27T01:06:44.087Z,98857.91
2024-01-27T01:11:47.356Z,98872.50
2024-01-27T01:16:51.989Z,98863.53
2024-01-27T01:21:55.214Z,98866.28
2024-01-27T01:26:58.439Z,98868.69
2024-01-27T01:32:04.000Z,98872.81
2024-01-27T01:37:07.272Z,98867.56
2024-01-27T01:42:10.489Z,98877.88
2024-01-27T01:47:15.033Z,98885.59
2024-01-27T01:52:21.174Z,98894.97
2024-01-27T01:57:24.409Z,98912.03
2024-01-27T02:02:29.139Z,98910.84
2024-01-27T02:07:32.347Z,98909.72
2024-01-27T02:12:37.641Z,98905.25
2024-01-27T02:17:42.995Z,98908.94
2024-01-27T02:22:46.377Z,98900.50
2024-01-27T02:27:50.998Z,98910.53
2024-01-27T02:32:54.478Z,98918.13
2024-01-27T02:37:57.848Z,98924.88
2024-01-27T02:43:02.493Z,98929.03
2024-01-27T02:48:06.389Z,98928.22
2024-01-27T02:53:09.762Z,98933.56
2024-01-27T02:58:14.250Z,98921.16
2024-01-27T03:03:17.557Z,98932.75
2024-01-27T03:08:20.727Z,98943.19
2024-01-27T03:13:25.378Z,98935.13
2024-01-27T03:18:28.866Z,98943.53
2024-01-27T03:23:32.202Z,98948.94
2024-01-27T03:28:36.975Z,98956.75
2024-01-27T03:33:40.237Z,98966.25
2024-01-27T03:38:44.012Z,98971.03
2024-01-27T03:43:48.627Z,98980.63
2024-01-27T03:48:52.068Z,98988.34
2024-01-27T03:53:55.414Z,98977.28
2024-01-27T03:58:59.975Z,98984.19
2024-01-27T04:04:03.353Z,98984.31
2024-01-27T04:09:09.654Z,98991.28
2024-01-27T04:14:14.341Z,98987.97
2024-01-27T04:19:17.741Z,98991.00
2024-01-27T04:24:21.043Z,98980.00
2024-01-27T04:29:25.623Z,98987.91
2024-01-27T04:34:28.913Z,98984.19
2024-01-27T04:39:32.414Z,98976.88
2024-01-27T04:44:37.493Z,98982.84
2024-01-27T04:49:41.010Z,98981.69
2024-01-27T04:54:44.757Z,98997.81
2024-01-27T04:59:49.741Z,99000.41
2024-01-27T05:04:52.920Z,99014.31
2024-01-27T05:09:56.070Z,99017.03
2024-01-27T05:15:00.838Z,99022.38
2024-01-27T05:20:05.613Z,99027.06
2024-01-27T05:25:10.815Z,99026.06
2024-01-27T05:30:16.041Z,99027.88
2024-01-27T05:35:19.316Z,99033.56
2024-01-27T05:40:22.740Z,99022.34
2024-01-27T05:45:27.785Z,99037.81
2024-01-27T05:50:33.023Z,99026.13
2024-01-27T05:55:36.242Z,99037.03
2024-01-27T06:00:40.923Z,99044.94
2024-01-27T06:05:44.386Z,99049.47
2024-01-27T06:10:47.728Z,99050.03
2024-01-27T06:15:52.356Z,99051.81
2024-01-27T06:20:55.594Z,99048.22
2024-01-27T06:25:58.825Z,99054.38
2024-01-27T06:31:03.531Z,99060.41
2024-01-27T06:36:09.524Z,99058.56
2024-01-27T06:41:13.026Z,99053.94
2024-01-27T06:46:17.671Z,99053.84
2024-01-27T06:51:20.963Z,99061.06
2024-01-27T06:56:24.194Z,99062.19
2024-01-27T07:01:28.849Z,99071.22
2024-01-27T07:06:32.568Z,99082.41
2024-01-27T07:11:36.031Z,99081.44
2024-01-27T07:16:40.924Z,99088.53
2024-01-27T07:21:44.266Z,99092.75
2024-01-27T07:26:47.614Z,99093.59
2024-01-27T07:31:52.513Z,99098.81
2024-01-27T07:36:55.754Z,99097.03
2024-01-27T07:41:59.498Z,99105.69
2024-01-27T07:47:04.204Z,99102.91
2024-01-27T07:52:08.335Z,99115.16
2024-01-27T07:57:13.266Z,99117.56
2024-01-27T08:02:17.913Z,99122.25
2024-01-27T08:07:21.193Z,99128.16
2024-01-27T08:12:24.622Z,99130.88
2024-01-27T08:17:29.302Z,99139.47
2024-01-27T08:22:32.474Z,99136.91
2024-01-27T08:27:35.934Z,99129.53
2024-01-27T08:32:40.666Z,99125.41
2024-01-27T08:37:44.023Z,99147.50
2024-01-27T08:42:47.302Z,99131.81
2024-01-27T08:47:52.062Z,99145.59
2024-01-27T08:52:55.610Z,99138.03
2024-01-27T08:57:59.166Z,99141.44
2024-01-27T09:03:04.656Z,99146.47
2024-01-27T09:08:09.044Z,99139.41
2024-01-27T09:13:12.330Z,99148.97
2024-01-27T09:18:18.250Z,99148.34
2024-01-27T09:23:21.617Z,99146.84
2024-01-27T09:28:25.229Z,99144.66
2024-01-27T09:33:31.191Z,99139.06
2024-01-27T09:38:34.650Z,99143.25
2024-01-27T09:43:39.946Z,99154.34
2024-01-27T09:48:45.312Z,99159.50
2024-01-27T09:53:49.076Z,99160.44
2024-01-27T09:58:56.630Z,99159.53
2024-01-27T10:04:01.837Z,99167.28
2024-01-27T10:09:05.191Z,99165.19
2024-01-27T10:14:08.725Z,99165.50
2024-01-27T10:19:18.785Z,99155.31
2024-01-27T10:24:22.307Z,99134.91
2024-01-27T10:29:25.657Z,99144.13
2024-01-27T10:34:30.467Z,99152.41
2024-01-27T10:39:33.746Z,99157.66
2024-01-27T10:44:38.078Z,99157.59
2024-01-27T10:49:45.115Z,99156.69
2024-01-27T10:54:48.931Z,99158.97
2024-01-27T10:59:53.302Z,99158.19
2024-01-27T11:04:58.049Z,99161.84
2024-01-27T11:10:01.372Z,99155.13
2024-01-27T11:15:05.459Z,99157.13
2024-01-27T11:20:12.527Z,99165.25
2024-01-27T11:25:17.528Z,99154.78
2024-01-27T11:30:31.532Z,99154.03
2024-01-27T11:35:36.843Z,99155.09
2024-01-27T11:40:47.963Z,99152.25
2024-01-27T11:45:58.159Z,99162.88
2024-01-27T11:51:09.377Z,99150.47
2024-01-27T11:56:12.674Z,99156.63
2024-01-27T12:01:15.998Z,99160.19
2024-01-27T12:06:21.256Z,99155.59
2024-01-27T12:11:25.718Z,99169.47
2024-01-27T12:16:29.224Z,99153.97
2024-01-27T12:21:33.942Z,99157.06
2024-01-27T12:26:40.397Z,99153.09
2024-01-27T12:31:43.784Z,99156.88
2024-01-27T12:36:49.176Z,99153.84
2024-01-27T12:41:52.670Z,99162.38
2024-01-27T12:46:55.862Z,99164.97
2024-01-27T12:52:00.542Z,99143.47
2024-01-27T12:57:04.083Z,99148.91
2024-01-27T13:02:07.598Z,99139.44
2024-01-27T13:07:12.409Z,99138.00
2024-01-27T13:12:15.664Z,99130.28
2024-01-27T13:17:20.510Z,99133.72
2024-01-27T13:22:26.167Z,99141.19
2024-01-27T13:27:31.454Z,99131.66
2024-01-27T13:32:34.986Z,99146.59
2024-01-27T13:37:40.659Z,99146.38
2024-01-27T13:42:43.978Z,99144.72
2024-01-27T13:47:47.228Z,99148.53
2024-01-27T13:52:51.836Z,99144.72
2024-01-27T13:57:55.482Z,99137.81
2024-01-27T14:02:58.696Z,99154.22
2024-01-27T14:08:05.243Z,99154.81
2024-01-27T14:13:10.371Z,99162.81
2024-01-27T14:18:21.790Z,99144.28
2024-01-27T14:23:26.927Z,99136.44
2024-01-27T14:28:30.125Z,99145.47
2024-01-27T14:33:33.574Z,99141.00
2024-01-27T14:38:38.170Z,99163.13
2024-01-27T14:43:41.818Z,99152.84
2024-01-27T14:48:46.339Z,99153.69
2024-01-27T14:53:51.163Z,99164.81
2024-01-27T14:58:54.315Z,99174.41
2024-01-27T15:03:57.742Z,99173.47
2024-01-27T15:09:02.798Z,99173.75
2024-01-27T15:14:06.120Z,99182.66
2024-01-27T15:19:09.844Z,99181.78
2024-01-27T15:24:14.439Z,99179.25
2024-01-27T15:29:17.810Z,99166.22
2024-01-27T15:34:21.081Z,99170.63
2024-01-27T15:39:25.881Z,99187.84
2024-01-27T15:44:29.084Z,99189.47
2024-01-27T15:49:32.401Z,99190.66
2024-01-27T15:54:37.042Z,99195.03
2024-01-27T15:59:40.223Z,99209.72
2024-01-27T16:04:44.388Z,99215.66
2024-01-27T16:09:49.889Z,99222.88
2024-01-27T16:14:53.077Z,99229.72
2024-01-27T16:19:56.434Z,99224.72
2024-01-27T16:25:01.285Z,99229.41
2024-01-27T16:30:04.860Z,99236.69
2024-01-27T16:35:09.910Z,99244.22
2024-01-27T16:40:14.675Z,99247.63
2024-01-27T16:45:17.949Z,99251.25
2024-01-27T16:50:21.389Z,99241.81
2024-01-27T16:55:28.214Z,99234.38
2024-01-27T17:00:31.862Z,99219.81
2024-01-27T17:05:35.043Z,99227.03
2024-01-27T17:10:39.646Z,99235.31
2024-01-27T17:15:43.742Z,99233.44
2024-01-27T17:20:50.157Z,99230.06
2024-01-27T17:25:54.732Z,99248.53
2024-01-27T17:31:00.148Z,99251.31
2024-01-27T17:36:03.880Z,99261.97
2024-01-27T17:41:08.600Z,99278.56
2024-01-27T17:46:12.522Z,99281.25
2024-01-27T17:51:15.876Z,99279.63
2024-01-27T17:56:29.153Z,99268.34
2024-01-27T18:01:32.398Z,99277.09
2024-01-27T18:06:35.856Z,99278.75
2024-01-27T18:11:40.584Z,99276.41
2024-01-27T18:16:44.566Z,99273.91
2024-01-27T18:21:47.851Z,99268.75
2024-01-27T18:26:52.654Z,99276.69
2024-01-27T18:31:57.071Z,99273.22
2024-01-27T18:37:00.843Z,99284.50
2024-01-27T18:42:05.855Z,99294.97
2024-01-27T18:47:09.865Z,99276.75
2024-01-27T18:52:13.112Z,99279.47
2024-01-27T18:57:17.724Z,99295.91
2024-01-27T19:02:20.916Z,99296.13
2024-01-27T19:07:24.271Z,99303.88
2024-01-27T19:12:29.192Z,99296.13
2024-01-27T19:17:32.638Z,99292.59
2024-01-27T19:22:35.885Z,99291.81
2024-01-27T19:27:40.651Z,99294.56
2024-01-27T19:32:44.838Z,99287.50
2024-01-27T19:37:48.221Z,99292.78
2024-01-27T19:42:53.028Z,99291.97
2024-01-27T19:47:56.334Z,99295.44
2024-01-27T19:52:59.612Z,99303.25
2024-01-27T19:58:04.382Z,99299.00
2024-01-27T20:09:36.945Z,99299.16
2024-01-27T20:14:41.924Z,99306.91
2024-01-27T20:19:45.877Z,99299.19
2024-01-27T20:24:49.298Z,99294.81
2024-01-27T20:29:53.980Z,99291.31
2024-01-27T20:34:57.300Z,99282.72
2024-01-27T20:40:01.119Z,99287.94
2024-01-27T20:45:06.484Z,99299.97
2024-01-27T20:50:10.510Z,99300.03
2024-01-27T20:55:13.791Z,99300.88
2024-01-27T21:00:19.368Z,99300.91
2024-01-27T21:05:22.663Z,99299.22
2024-01-27T21:10:25.967Z,99297.47
2024-01-27T21:15:30.668Z,99303.56
2024-01-27T21:20:34.018Z,99307.03
2024-01-27T21:25:37.296Z,99303.63
2024-01-27T21:30:41.945Z,99304.47
2024-01-27T21:35:45.727Z,99293.25
2024-01-27T21:40:49.114Z,99295.84
2024-01-27T21:45:53.777Z,99294.13
2024-01-27T21:50:57.222Z,99287.22
2024-01-27T21:56:00.485Z,99289.81
2024-01-27T22:01:05.512Z,99283.78
2024-01-27T22:06:09.612Z,99282.94
2024-01-27T22:11:13.527Z,99274.28
2024-01-27T22:16:18.650Z,99268.22
2024-01-27T22:21:21.912Z,99283.81
2024-01-27T22:26:25.333Z,99277.75
2024-01-27T22:31:32.706Z,99265.63
2024-01-27T22:36:36.180Z,99254.38
2024-01-27T22:41:41.087Z,99252.69
2024-01-27T22:46:45.764Z,99262.19
2024-01-27T22:51:51.279Z,99259.59
2024-01-27T22:56:54.688Z,99257.88
2024-01-27T23:01:59.508Z,99260.47
2024-01-27T23:07:03.230Z,99247.50
2024-01-27T23:12:07.410Z,99239.72
2024-01-27T23:17:12.264Z,99239.72
2024-01-27T23:22:15.983Z,99244.06
2024-01-27T23:27:20.164Z,99240.59
2024-01-27T23:32:25.302Z,99234.53
2024-01-27T23:37:28.671Z,99233.69
2024-01-27T23:42:32.167Z,99230.22
2024-01-27T23:47:37.418Z,99231.91
2024-01-27T23:52:44.982Z,99230.19
2024-01-27T23:57:49.958Z,99220.72
